Stations météo

réclame
Mon MeteoGroup
Tibenham Airfield, Grande-Bretagne (3931): Température de l'air & dewpoint: 13.07.2019 07:00:00 - 19.07.2019 07:00:00 (BST)Tibenham Airfield, Grande-Bretagne (3931): Température de l'air -20cm & Température de l'air -100cm: 13.07.2019 07:00:00 - 19.07.2019 07:00:00 (BST)Tibenham Airfield, Grande-Bretagne (3931): Vitesse du vent: 13.07.2019 07:00:00 - 19.07.2019 07:00:00 (BST)Tibenham Airfield, Grande-Bretagne (3931): Direction du vent: 13.07.2019 07:00:00 - 19.07.2019 07:00:00 (BST)Tibenham Airfield, Grande-Bretagne (3931): reduced air pressure: 13.07.2019 07:00:00 - 19.07.2019 07:00:00 (BST)Tibenham Airfield, Grande-Bretagne (3931): Ensoleillement: 13.07.2019 07:00:00 - 19.07.2019 07:00:00 (BST)Tibenham Airfield, Grande-Bretagne (3931): Quantités de précipitations: 13.07.2019 07:00:00 - 19.07.2019 07:00:00 (BST)
Date & Time tt [°C] td [°C] tt -20cm [°C] tt -100cm [°C] ff [km/h] ff [knt] dd ppp [hPa] sd [min] rr [mm]
19.07.2019 07:00:00 - - - - - - - - - 0,0
19.07.2019 06:00:00 11,6 11,0 - - 8 4 SSW 1011,7 0 0,0
19.07.2019 05:00:00 9,1 7,7 - - 4 2 WSW 1011,5 0 0,0
19.07.2019 04:00:00 10,9 9,0 - - 5 3 WSW 1011,8 0 0,0
19.07.2019 03:00:00 11,7 9,4 - - 8 4 WSW 1011,7 0 0,0
19.07.2019 02:00:00 11,9 9,3 - - 8 4 WSW 1011,7 0 0,0
19.07.2019 01:00:00 13,3 9,4 - - 11 6 WSW 1011,5 - 0,0
19.07.2019 00:00:00 15,2 10,5 - - 9 5 SW 1011,2 0 0,0
18.07.2019 23:00:00 13,4 9,9 - - 8 4 SW 1010,9 0 0,0
18.07.2019 22:00:00 16,4 11,4 - - 4 2 SW 1010,8 0 0,0
18.07.2019 21:00:00 18,0 11,1 - - 5 3 WSW 1010,2 0 0,0
18.07.2019 20:00:00 19,7 10,7 - - 11 6 W 1009,7 0 0,0
18.07.2019 19:00:00 20,4 10,8 - - 13 7 WNW 1009,4 12 0,0
18.07.2019 18:00:00 21,0 11,9 - - 15 8 W 1009,0 12 0,0
18.07.2019 17:00:00 20,6 13,8 - - 13 7 NW 1008,9 18 0,0
18.07.2019 16:00:00 20,3 13,8 - - 11 6 NW 1008,6 6 0,0
18.07.2019 15:00:00 19,0 15,2 - - 18 10 NW 1008,6 0 0,0
18.07.2019 14:00:00 19,7 16,2 - - 15 8 WSW 1008,3 0 0,0
18.07.2019 13:00:00 18,8 16,7 - - 13 7 WSW 1008,3 0 0,0
18.07.2019 12:00:00 17,9 16,7 - - 16 9 WSW 1008,5 0 0,2
18.07.2019 11:00:00 16,9 16,4 - - 13 7 SW 1008,3 0 0,6
18.07.2019 10:00:00 16,4 15,6 18,4 16,4 15 8 SW 1008,4 0 0,2
18.07.2019 09:00:00 17,5 14,8 - - 18 10 SW 1008,3 6 0,0
18.07.2019 08:00:00 17,3 14,1 - - 13 7 SW 1008,3 0 0,0
18.07.2019 07:00:00 16,1 13,5 - - 11 6 SSW 1008,3 0 0,0
18.07.2019 06:00:00 15,5 13,3 - - 9 5 SSW 1008,5 0 0,0
18.07.2019 05:00:00 15,6 13,6 - - 11 6 SW 1008,9 0 0,0
18.07.2019 04:00:00 16,0 14,1 - - 9 5 SSW 1009,0 0 0,0
18.07.2019 03:00:00 16,2 14,0 - - 5 3 SW 1009,2 0 0,2
18.07.2019 02:00:00 16,7 13,3 - - 11 6 SW 1009,9 0 0,0
18.07.2019 01:00:00 17,2 13,6 - - 9 5 S 1010,1 - 0,0
18.07.2019 00:00:00 17,1 14,0 - - 9 5 S 1010,3 0 0,0
17.07.2019 23:00:00 17,2 14,4 - - 9 5 S 1010,3 0 0,0
17.07.2019 22:00:00 17,5 13,8 - - 11 6 SSE 1010,5 0 0,0
17.07.2019 21:00:00 18,7 13,1 - - 9 5 SSE 1010,5 0 0,0
17.07.2019 20:00:00 20,9 13,0 - - 16 9 S 1010,5 24 0,0
17.07.2019 19:00:00 21,6 12,5 - - 15 8 S 1011,1 0 0,0
17.07.2019 18:00:00 22,0 12,6 - - 15 8 S 1011,3 0 0,0
17.07.2019 17:00:00 22,7 12,7 - - 21 11 S 1011,7 0 0,0
17.07.2019 16:00:00 23,7 12,4 - - 18 10 S 1011,9 0 0,0
17.07.2019 15:00:00 24,2 11,5 - - 21 11 S 1012,2 6 0,0
17.07.2019 14:00:00 25,6 12,4 - - 15 8 S 1012,4 48 0,0
17.07.2019 13:00:00 24,4 10,8 - - 15 8 SW 1013,0 24 0,0
17.07.2019 12:00:00 24,0 13,4 - - 13 7 SW 1013,6 54 0,0
17.07.2019 11:00:00 23,1 14,1 - - 15 8 WSW 1014,0 60 0,0
17.07.2019 10:00:00 22,0 14,8 18,0 16,4 13 7 SW 1014,3 48 0,0
17.07.2019 09:00:00 19,7 14,0 - - 11 6 SW 1014,7 48 0,0
17.07.2019 08:00:00 18,5 14,8 - - 9 5 WSW 1014,6 48 0,0
17.07.2019 07:00:00 15,4 13,2 - - 9 5 SSW 1014,6 0 0,0
17.07.2019 06:00:00 15,3 13,1 - - 9 5 SSW 1014,9 0 0,0
17.07.2019 05:00:00 15,7 13,2 - - 9 5 SW 1015,1 0 0,0
17.07.2019 04:00:00 16,7 13,6 - - 11 6 S 1015,1 0 0,0
17.07.2019 03:00:00 17,2 14,0 - - 15 8 S 1015,5 0 0,0
17.07.2019 02:00:00 17,4 14,3 - - 9 5 S 1016,2 0 0,0
17.07.2019 01:00:00 16,1 13,2 - - 8 4 SSE 1016,7 - 0,0
17.07.2019 00:00:00 15,2 11,9 - - 9 5 SE 1016,9 0 0,0
16.07.2019 23:00:00 16,4 12,1 - - 8 4 SSE 1017,2 0 0,0
16.07.2019 22:00:00 17,9 13,3 - - 4 2 ESE 1017,4 0 0,0
16.07.2019 21:00:00 18,9 12,9 - - 5 3 SSE 1017,1 0 0,0
16.07.2019 20:00:00 19,9 13,0 - - 11 6 SSE 1016,8 0 0,0
16.07.2019 19:00:00 22,2 13,7 - - 15 8 SSE 1016,6 18 0,0
16.07.2019 18:00:00 22,9 13,8 - - 13 7 SSE 1016,7 54 0,0
16.07.2019 17:00:00 22,9 13,0 - - 16 9 SE 1017,0 24 0,0
16.07.2019 16:00:00 23,3 13,5 - - 11 6 E 1017,2 18 0,0
16.07.2019 15:00:00 23,1 12,3 - - 13 7 NNE 1017,5 24 0,0
16.07.2019 14:00:00 23,5 11,5 - - 8 4 N 1017,6 42 0,0
16.07.2019 13:00:00 22,8 11,4 - - 8 4 N 1017,9 48 0,0
16.07.2019 12:00:00 22,2 12,4 - - 9 5 WNW 1018,3 48 0,0
16.07.2019 11:00:00 21,6 13,7 - - 11 6 NW 1018,4 60 0,0
16.07.2019 10:00:00 19,9 13,5 17,7 16,4 11 6 WNW 1018,9 54 -
16.07.2019 09:00:00 18,3 12,9 - - 13 7 WNW 1019,2 60 0,0
16.07.2019 08:00:00 15,0 12,0 - - 13 7 W 1019,5 60 0,0
16.07.2019 07:00:00 12,3 11,2 - - 9 5 WSW 1019,3 60 0,0
16.07.2019 06:00:00 9,8 9,4 - - 8 4 WSW 1019,3 12 0,0
16.07.2019 05:00:00 9,0 8,4 - - 8 4 WSW 1019,4 0 0,0
16.07.2019 04:00:00 10,0 9,4 - - 9 5 WSW 1019,5 0 0,0
16.07.2019 03:00:00 10,4 9,6 - - 8 4 SW 1020,0 0 0,0
16.07.2019 02:00:00 11,5 10,9 - - 9 5 SSW 1020,3 0 0,0
16.07.2019 01:00:00 11,3 11,1 - - 11 6 S 1020,6 - 0,0
16.07.2019 00:00:00 10,2 9,5 - - 8 4 SSE 1020,9 0 0,0
15.07.2019 23:00:00 11,7 10,5 - - 9 5 SSE 1021,1 0 0,0
15.07.2019 22:00:00 11,1 8,9 - - 4 2 SE 1021,0 0 0,0
15.07.2019 21:00:00 15,1 10,2 - - 4 2 ESE 1020,8 48 0,0
15.07.2019 20:00:00 17,8 10,4 - - 4 2 NNE 1020,8 60 0,0
15.07.2019 19:00:00 18,2 10,1 - - 5 3 NNE 1020,9 60 0,0
15.07.2019 18:00:00 17,2 10,5 - - 11 6 NNE 1021,2 18 0,0
15.07.2019 17:00:00 17,4 10,6 - - 11 6 N 1021,7 0 0,0
15.07.2019 16:00:00 17,3 11,0 - - 13 7 N 1022,1 0 0,0
15.07.2019 15:00:00 16,4 10,7 - - 8 4 N 1022,2 0 0,0
15.07.2019 14:00:00 16,3 10,6 - - 11 6 N 1022,4 0 0,0
15.07.2019 13:00:00 15,7 10,7 - - 11 6 N 1022,6 0 0,0
15.07.2019 12:00:00 15,2 10,5 - - 11 6 NNW 1022,6 0 0,0
15.07.2019 11:00:00 14,4 10,6 - - 9 5 N 1022,7 0 0,0
15.07.2019 10:00:00 14,1 10,3 18,0 16,4 11 6 NNE 1022,8 0 0,0
15.07.2019 09:00:00 13,8 10,3 - - 11 6 N 1022,6 0 0,0
15.07.2019 08:00:00 13,7 10,2 - - 11 6 NNW 1022,4 0 0,0
15.07.2019 07:00:00 13,0 11,2 - - 8 4 NNW 1022,4 0 0,0
15.07.2019 06:00:00 12,3 11,5 - - 8 4 NNW 1022,4 0 0,0
15.07.2019 05:00:00 12,7 10,7 - - 8 4 NW 1022,5 0 0,0
15.07.2019 04:00:00 12,7 10,3 - - 5 3 N 1022,1 0 0,0
15.07.2019 03:00:00 12,7 10,6 - - 8 4 NNW 1022,5 0 0,0
15.07.2019 02:00:00 12,7 10,0 - - 5 3 NNW 1022,8 0 0,0
15.07.2019 01:00:00 12,8 9,3 - - 5 3 N 1023,0 - 0,0
15.07.2019 00:00:00 13,1 9,4 - - 9 5 NNE 1023,3 0 0,0
14.07.2019 23:00:00 13,4 10,6 - - 11 6 N 1023,3 0 0,0
14.07.2019 22:00:00 13,7 10,2 - - 15 8 N 1023,3 0 0,0
14.07.2019 21:00:00 14,3 10,5 - - 8 4 N 1023,1 0 0,0
14.07.2019 20:00:00 15,0 10,6 - - 16 9 N 1023,1 0 0,0
14.07.2019 19:00:00 15,3 9,3 - - 15 8 N 1023,2 0 0,0
14.07.2019 18:00:00 15,6 9,6 - - 18 10 N 1023,2 6 0,0
14.07.2019 17:00:00 16,7 10,5 - - 21 11 N 1023,2 0 0,0
14.07.2019 16:00:00 17,5 11,9 - - 15 8 N 1023,3 6 0,0
14.07.2019 15:00:00 18,3 10,8 - - 21 11 N 1023,0 6 0,0
14.07.2019 14:00:00 17,6 12,4 - - 16 9 NNE 1023,2 0 0,0
14.07.2019 13:00:00 16,4 11,8 - - 11 6 NNE 1023,2 0 0,0
14.07.2019 12:00:00 17,3 11,0 - - 16 9 N 1023,1 6 0,0
14.07.2019 11:00:00 17,5 11,1 - - 15 8 NNE 1023,0 6 0,0
14.07.2019 10:00:00 16,8 10,2 18,2 16,4 16 9 N 1023,0 36 0,0
14.07.2019 09:00:00 16,3 13,0 - - 13 7 N 1022,9 24 0,0
14.07.2019 08:00:00 14,8 12,5 - - 11 6 N 1022,7 18 0,0
14.07.2019 07:00:00 14,0 13,3 - - 9 5 NNW 1022,7 0 0,0
14.07.2019 06:00:00 12,9 12,4 - - 5 3 NW 1022,5 0 0,2
14.07.2019 05:00:00 12,9 12,1 - - 8 4 NW 1022,7 0 0,0
14.07.2019 04:00:00 13,0 12,0 - - 5 3 NNW 1022,6 0 0,0
14.07.2019 03:00:00 13,4 11,9 - - 4 2 NW 1022,8 0 0,0
14.07.2019 02:00:00 13,5 11,9 - - 5 3 NNW 1023,0 0 0,0
14.07.2019 01:00:00 13,5 11,4 - - 4 2 N 1022,8 - 0,0
14.07.2019 00:00:00 13,5 11,8 - - 4 2 NNE 1022,8 0 0,0
13.07.2019 23:00:00 13,5 11,7 - - 5 3 N 1023,0 0 0,0
13.07.2019 22:00:00 13,4 11,6 - - 8 4 NNE 1022,7 0 0,0
13.07.2019 21:00:00 14,8 11,8 - - 9 5 N 1022,4 6 0,0
13.07.2019 20:00:00 16,7 12,1 - - 13 7 N 1022,1 54 0,0
13.07.2019 19:00:00 18,4 12,9 - - 15 8 NNE 1021,8 48 0,0
13.07.2019 18:00:00 18,5 13,3 - - 13 7 NNE 1021,9 24 0,0
13.07.2019 17:00:00 18,4 12,9 - - 16 9 N 1022,0 18 0,0
13.07.2019 16:00:00 18,9 13,2 - - 18 10 N 1021,9 30 0,0
13.07.2019 15:00:00 19,5 11,6 - - 18 10 N 1021,5 42 0,0
13.07.2019 14:00:00 20,2 13,9 - - 16 9 N 1021,6 30 0,0
13.07.2019 13:00:00 19,2 13,9 - - 15 8 NNW 1021,6 18 0,0
13.07.2019 12:00:00 17,5 13,4 - - 16 9 N 1021,3 0 0,0
13.07.2019 11:00:00 16,2 14,1 - - 13 7 N 1021,1 0 0,0
13.07.2019 10:00:00 16,9 13,4 18,2 16,2 15 8 N 1020,6 0 0,0
13.07.2019 09:00:00 16,5 14,2 - - 13 7 NNW 1020,5 0 0,0
13.07.2019 08:00:00 15,4 13,9 - - 16 9 NNW 1020,3 0 0,0
13.07.2019 07:00:00 15,3 13,8 - - 11 6 NNW 1019,6 0 0,0

tt = Température de l'air
td = dewpoint
tt -20cm = Température de l'air -20cm
tt -100cm = Température de l'air -100cm
ff = Vitesse du vent
dd = Direction du vent
ppp = reduced air pressure
sd = Ensoleillement
rr = Quantités de précipitations

stations d'obs. à proximité